createdAt,value
2019-02-04T00:00:49.193Z,99.90
2019-02-04T00:03:17.426Z,99.90
2019-02-04T00:05:44.419Z,99.90
2019-02-04T00:08:11.506Z,99.90
2019-02-04T00:10:38.517Z,99.90
2019-02-04T00:13:05.817Z,99.90
2019-02-04T00:15:32.954Z,99.90
2019-02-04T00:17:59.922Z,99.90
2019-02-04T00:20:26.923Z,99.90
2019-02-04T00:22:53.791Z,99.90
2019-02-04T00:25:21.703Z,99.90
2019-02-04T00:27:48.658Z,99.90
2019-02-04T00:30:15.741Z,99.90
2019-02-04T00:32:42.632Z,99.90
2019-02-04T00:35:09.710Z,99.90
2019-02-04T00:37:36.484Z,99.90
2019-02-04T00:40:05.172Z,99.90
2019-02-04T00:42:32.151Z,99.90
2019-02-04T00:44:58.937Z,99.90
2019-02-04T00:47:25.821Z,99.90
2019-02-04T00:49:52.618Z,99.90
2019-02-04T00:52:19.397Z,99.90
2019-02-04T00:54:46.186Z,99.90
2019-02-04T00:57:13.080Z,99.90
2019-02-04T00:59:40.083Z,99.90
2019-02-04T01:02:07.036Z,99.90
2019-02-04T01:04:34.408Z,99.90
2019-02-04T01:07:01.389Z,99.90
2019-02-04T01:09:28.371Z,99.90
2019-02-04T01:11:55.370Z,99.90
2019-02-04T01:14:22.365Z,99.90
2019-02-04T01:16:49.334Z,99.90
2019-02-04T01:19:16.308Z,99.90
2019-02-04T01:21:43.590Z,99.90
2019-02-04T01:24:10.564Z,99.90
2019-02-04T01:26:37.344Z,99.90
2019-02-04T01:29:04.333Z,99.90
2019-02-04T01:31:31.215Z,99.90
2019-02-04T01:33:58.013Z,99.90
2019-02-04T01:36:24.793Z,99.90
2019-02-04T01:38:51.978Z,99.90
2019-02-04T01:41:18.979Z,99.90
2019-02-04T01:43:45.749Z,99.90
2019-02-04T01:46:12.745Z,99.90
2019-02-04T01:48:39.630Z,99.90
2019-02-04T01:51:06.616Z,99.90
2019-02-04T01:53:33.408Z,99.90
2019-02-04T01:56:00.725Z,99.90
2019-02-04T01:58:27.523Z,99.90
2019-02-04T02:00:54.425Z,99.90
2019-02-04T02:03:21.416Z,99.90
2019-02-04T02:05:48.195Z,99.90
2019-02-04T02:08:17.988Z,99.90
2019-02-04T02:10:44.974Z,99.90
2019-02-04T02:13:12.287Z,99.90
2019-02-04T02:15:39.174Z,99.90
2019-02-04T02:18:06.255Z,99.90
2019-02-04T02:20:33.225Z,99.90
2019-02-04T02:23:00.122Z,99.90
2019-02-04T02:25:27.008Z,99.90
2019-02-04T02:27:54.045Z,99.90
2019-02-04T02:30:23.909Z,99.90
2019-02-04T02:32:50.934Z,99.90
2019-02-04T02:35:18.019Z,99.90
2019-02-04T02:37:45.027Z,99.90
2019-02-04T02:40:16.058Z,99.90
2019-02-04T02:42:42.941Z,99.90
2019-02-04T02:45:09.832Z,99.90
2019-02-04T02:47:38.467Z,99.90
2019-02-04T02:50:06.942Z,99.90
2019-02-04T02:52:33.912Z,99.90
2019-02-04T02:55:01.006Z,99.90
2019-02-04T02:57:28.085Z,99.90
2019-02-04T02:59:55.179Z,99.90
2019-02-04T03:02:22.065Z,99.90
2019-02-04T03:04:49.528Z,99.90
2019-02-04T03:07:19.462Z,99.90
2019-02-04T03:09:46.476Z,99.90
2019-02-04T03:12:13.441Z,99.90
2019-02-04T03:14:40.432Z,99.90
2019-02-04T03:17:07.425Z,99.90
2019-02-04T03:19:34.322Z,99.90
2019-02-04T03:22:01.331Z,99.90
2019-02-04T03:24:28.150Z,99.90
2019-02-04T03:26:55.055Z,99.90
2019-02-04T03:29:22.138Z,99.90
2019-02-04T03:31:48.954Z,99.90
2019-02-04T03:34:15.837Z,99.90
2019-02-04T03:36:42.763Z,99.90
2019-02-04T03:39:10.056Z,99.90
2019-02-04T03:41:36.952Z,99.90
2019-02-04T03:44:04.029Z,99.90
2019-02-04T03:46:31.010Z,99.90
2019-02-04T03:48:57.817Z,99.90
2019-02-04T03:51:24.814Z,99.90
2019-02-04T03:53:51.721Z,99.90
2019-02-04T03:56:18.845Z,99.90
2019-02-04T03:58:45.834Z,99.90
2019-02-04T04:01:12.824Z,99.90
2019-02-04T04:03:39.822Z,99.90
2019-02-04T04:06:06.816Z,99.90
2019-02-04T04:08:33.614Z,99.90
2019-02-04T04:11:00.504Z,99.90
2019-02-04T04:13:27.718Z,99.90
2019-02-04T04:15:54.696Z,99.90
2019-02-04T04:18:21.608Z,99.90
2019-02-04T04:20:48.591Z,99.90
2019-02-04T04:23:15.497Z,99.90
2019-02-04T04:25:42.278Z,99.90
2019-02-04T04:28:09.072Z,99.90
2019-02-04T04:30:36.462Z,99.90
2019-02-04T04:33:03.460Z,99.90
2019-02-04T04:35:30.357Z,99.90
2019-02-04T04:37:57.249Z,99.90
2019-02-04T04:40:24.267Z,99.90
2019-02-04T04:42:51.221Z,99.90
2019-02-04T04:45:20.257Z,99.90
2019-02-04T04:47:47.864Z,99.90
2019-02-04T04:50:15.277Z,99.90
2019-02-04T04:52:42.533Z,99.90
2019-02-04T04:55:11.315Z,99.90
2019-02-04T04:57:38.233Z,99.90
2019-02-04T05:00:07.361Z,99.90
2019-02-04T05:02:34.357Z,99.90
2019-02-04T05:05:01.647Z,99.90
2019-02-04T05:07:28.648Z,99.90
2019-02-04T05:09:55.637Z,99.90
2019-02-04T05:12:22.661Z,99.90
2019-02-04T05:14:49.461Z,99.90
2019-02-04T05:17:16.361Z,99.90
2019-02-04T05:19:43.182Z,99.90
2019-02-04T05:22:10.500Z,99.90
2019-02-04T05:24:37.434Z,99.90
2019-02-04T05:27:04.523Z,99.90
2019-02-04T05:29:31.310Z,99.90
2019-02-04T05:31:58.228Z,99.90
2019-02-04T05:34:25.032Z,99.90
2019-02-04T05:36:52.053Z,99.90
2019-02-04T05:39:19.240Z,99.90
2019-02-04T05:41:46.251Z,99.90
2019-02-04T05:44:13.225Z,99.90
2019-02-04T05:46:40.122Z,99.90
2019-02-04T05:49:07.104Z,99.90
2019-02-04T05:51:34.005Z,99.90
2019-02-04T05:54:01.101Z,99.90
2019-02-04T05:56:28.304Z,99.90
2019-02-04T05:58:55.245Z,99.90
2019-02-04T06:01:22.248Z,99.90
2019-02-04T06:03:49.048Z,99.90
2019-02-04T06:06:15.981Z,99.90
2019-02-04T06:08:42.806Z,99.90
2019-02-04T06:11:09.805Z,99.90
2019-02-04T06:13:36.733Z,99.90
2019-02-04T06:16:03.741Z,99.90
2019-02-04T06:18:30.662Z,99.90
2019-02-04T06:20:57.669Z,99.90
2019-02-04T06:23:24.848Z,99.90
2019-02-04T06:25:51.744Z,99.90
2019-02-04T06:28:18.741Z,99.90
2019-02-04T06:30:45.815Z,99.90
2019-02-04T06:33:12.881Z,99.90
2019-02-04T06:35:39.789Z,99.90
2019-02-04T06:38:06.758Z,99.90
2019-02-04T06:40:33.668Z,99.90
2019-02-04T06:43:00.462Z,99.90
2019-02-04T06:45:27.432Z,99.90
2019-02-04T06:47:54.422Z,99.90
2019-02-04T06:50:21.810Z,99.90
2019-02-04T06:52:48.823Z,99.90
2019-02-04T06:55:18.446Z,99.90
2019-02-04T06:57:45.429Z,99.90
2019-02-04T07:00:13.142Z,99.90
2019-02-04T07:02:40.189Z,99.90
2019-02-04T07:05:07.641Z,99.90
2019-02-04T07:07:35.039Z,99.90
2019-02-04T07:10:02.071Z,99.90
2019-02-04T07:12:28.957Z,99.90
2019-02-04T07:14:55.768Z,99.90
2019-02-04T07:17:22.706Z,99.90
2019-02-04T07:19:49.675Z,99.90
2019-02-04T07:22:16.597Z,99.90
2019-02-04T07:24:43.409Z,99.90
2019-02-04T07:27:10.206Z,99.90
2019-02-04T07:29:37.197Z,99.90
2019-02-04T07:32:04.189Z,99.90
2019-02-04T07:34:30.989Z,99.90
2019-02-04T07:36:57.896Z,99.90
2019-02-04T07:39:24.693Z,99.90
2019-02-04T07:41:51.593Z,99.90
2019-02-04T07:44:19.062Z,99.90
2019-02-04T07:46:46.064Z,99.90
2019-02-04T07:49:12.941Z,99.90
2019-02-04T07:51:39.837Z,99.90
2019-02-04T07:54:06.813Z,98.30
2019-02-04T07:56:33.593Z,97.10
2019-02-04T07:59:00.475Z,94.30
2019-02-04T08:01:27.473Z,93.00
2019-02-04T08:03:54.351Z,91.00
2019-02-04T08:06:21.232Z,88.20
2019-02-04T08:08:48.208Z,80.50
2019-02-04T08:11:15.017Z,76.60
2019-02-04T08:13:41.901Z,73.40
2019-02-04T08:16:08.845Z,66.50
2019-02-04T08:18:35.853Z,66.80
2019-02-04T08:21:03.238Z,61.70
2019-02-04T08:23:30.125Z,60.80
2019-02-04T08:25:57.096Z,58.60
2019-02-04T08:28:24.084Z,56.60
2019-02-04T08:30:51.046Z,56.20
2019-02-04T08:33:17.937Z,58.80
2019-02-04T08:35:45.083Z,62.10
2019-02-04T08:38:12.002Z,59.90
2019-02-04T08:40:38.877Z,59.80
2019-02-04T08:43:05.884Z,58.50
2019-02-04T08:45:33.139Z,56.80
2019-02-04T08:48:00.192Z,55.50
2019-02-04T08:50:27.891Z,54.70
2019-02-04T08:52:55.009Z,53.90
2019-02-04T08:55:22.397Z,52.90
2019-02-04T08:57:49.908Z,53.40
2019-02-04T09:00:18.533Z,54.70
2019-02-04T09:02:45.648Z,55.60
2019-02-04T09:05:13.683Z,54.80
2019-02-04T09:07:40.911Z,52.90
2019-02-04T09:10:09.056Z,51.80
2019-02-04T09:12:36.052Z,51.00
2019-02-04T09:15:04.443Z,51.10
2019-02-04T09:17:31.435Z,50.10
2019-02-04T09:20:09.390Z,49.80
2019-02-04T09:22:27.254Z,49.70
2019-02-04T09:24:54.165Z,49.60
2019-02-04T09:27:21.167Z,49.70
2019-02-04T09:29:48.157Z,48.50
2019-02-04T09:32:15.174Z,46.70
2019-02-04T09:34:42.461Z,47.10
2019-02-04T09:37:09.473Z,46.60
2019-02-04T09:39:39.714Z,46.50
2019-02-04T09:42:06.706Z,47.70
2019-02-04T09:44:33.612Z,48.70
2019-02-04T09:47:00.569Z,48.60
2019-02-04T09:49:27.449Z,48.50
2019-02-04T09:51:54.420Z,47.50
2019-02-04T09:54:21.495Z,46.70
2019-02-04T09:56:48.275Z,46.70
2019-02-04T09:59:15.171Z,47.40
2019-02-04T10:01:42.240Z,47.30
2019-02-04T10:04:09.140Z,46.30
2019-02-04T10:06:36.118Z,47.00
2019-02-04T10:09:06.262Z,46.70
2019-02-04T10:11:33.258Z,46.90
2019-02-04T10:14:00.041Z,46.00
2019-02-04T10:16:27.054Z,45.70
2019-02-04T10:18:54.027Z,46.50
2019-02-04T10:21:20.973Z,46.80
2019-02-04T10:23:48.043Z,47.50
2019-02-04T10:26:14.954Z,45.80
2019-02-04T10:28:41.744Z,44.10
2019-02-04T10:31:08.882Z,41.50
2019-02-04T10:33:36.235Z,41.20
2019-02-04T10:36:03.317Z,41.50
2019-02-04T10:38:30.334Z,40.90
2019-02-04T10:40:57.364Z,42.30
2019-02-04T10:43:24.437Z,43.30
2019-02-04T10:45:51.720Z,43.90
2019-02-04T10:48:18.801Z,44.70
2019-02-04T10:50:47.073Z,45.10
2019-02-04T10:53:14.445Z,45.20
2019-02-04T10:55:41.549Z,44.60
2019-02-04T10:58:10.085Z,45.00
2019-02-04T11:00:38.270Z,44.60
2019-02-04T11:03:05.685Z,45.60
2019-02-04T11:05:33.828Z,49.10
2019-02-04T11:08:00.899Z,50.60
2019-02-04T11:10:32.227Z,49.20
2019-02-04T11:12:59.424Z,48.00
2019-02-04T11:15:26.430Z,45.60
2019-02-04T11:17:53.562Z,43.50
2019-02-04T11:20:22.913Z,43.40
2019-02-04T11:22:50.199Z,40.40
2019-02-04T11:25:17.443Z,42.90
2019-02-04T11:27:44.526Z,43.50
2019-02-04T11:30:35.618Z,44.80
2019-02-04T11:33:02.857Z,46.90
2019-02-04T11:35:29.954Z,47.00
2019-02-04T11:37:57.035Z,47.80
2019-02-04T11:40:29.318Z,50.50
2019-02-04T11:42:56.382Z,50.50
2019-02-04T11:45:23.569Z,48.80
2019-02-04T11:47:50.594Z,47.50
2019-02-04T11:50:17.669Z,44.90
2019-02-04T11:52:44.671Z,41.20
2019-02-04T11:55:12.597Z,40.60
2019-02-04T11:57:39.585Z,37.60
2019-02-04T12:00:09.669Z,38.50
2019-02-04T12:02:37.057Z,37.10
2019-02-04T12:05:05.912Z,34.20
2019-02-04T12:07:32.699Z,37.70
2019-02-04T12:09:59.596Z,38.80
2019-02-04T12:12:26.487Z,40.20
2019-02-04T12:14:53.385Z,40.80
2019-02-04T12:17:20.377Z,42.90
2019-02-04T12:19:47.373Z,41.50
2019-02-04T12:22:14.282Z,42.20
2019-02-04T12:24:41.266Z,43.50
2019-02-04T12:27:08.256Z,43.10
2019-02-04T12:29:35.245Z,42.60
2019-02-04T12:32:02.127Z,42.80
2019-02-04T12:34:29.009Z,42.90
2019-02-04T12:36:55.948Z,42.90
2019-02-04T12:39:23.384Z,43.50
2019-02-04T12:41:50.890Z,43.60
2019-02-04T12:44:18.066Z,44.60
2019-02-04T12:46:44.985Z,44.50
2019-02-04T12:49:11.985Z,45.60
2019-02-04T12:51:39.009Z,45.40
2019-02-04T12:54:06.033Z,44.90
2019-02-04T12:56:32.937Z,43.60
2019-02-04T12:58:59.947Z,44.10
2019-02-04T13:01:26.977Z,44.60
2019-02-04T13:03:53.953Z,44.90
2019-02-04T13:06:20.989Z,45.90
2019-02-04T13:08:47.997Z,45.20
2019-02-04T13:11:15.003Z,43.60
2019-02-04T13:13:42.005Z,43.50
2019-02-04T13:16:08.997Z,45.20
2019-02-04T13:18:35.903Z,46.60
2019-02-04T13:21:03.348Z,47.60
2019-02-04T13:23:30.329Z,47.00
2019-02-04T13:25:57.233Z,45.10
2019-02-04T13:28:24.218Z,45.30
2019-02-04T13:30:51.016Z,41.60
2019-02-04T13:33:18.516Z,41.70
2019-02-04T13:35:45.613Z,42.10
2019-02-04T13:38:12.509Z,41.90
2019-02-04T13:40:44.375Z,42.50
2019-02-04T13:43:10.459Z,41.80
2019-02-04T13:45:37.868Z,39.60
2019-02-04T13:48:05.252Z,39.70
2019-02-04T13:50:32.355Z,39.70
2019-02-04T13:52:59.332Z,39.80
2019-02-04T13:55:28.410Z,39.20
2019-02-04T13:57:55.405Z,37.80
2019-02-04T14:00:26.837Z,36.00
2019-02-04T14:02:59.398Z,37.10
2019-02-04T14:05:22.075Z,38.30
2019-02-04T14:07:49.059Z,40.10
2019-02-04T14:10:18.285Z,41.50
2019-02-04T14:12:45.675Z,40.50
2019-02-04T14:15:13.317Z,40.00
2019-02-04T14:17:40.322Z,39.70
2019-02-04T14:20:10.396Z,37.70
2019-02-04T14:22:37.389Z,37.10
2019-02-04T14:25:04.730Z,36.50
2019-02-04T14:27:31.728Z,34.60
2019-02-04T14:29:58.723Z,34.50
2019-02-04T14:32:25.817Z,34.50
2019-02-04T14:34:54.628Z,35.00
2019-02-04T14:37:21.601Z,35.00
2019-02-04T14:39:48.492Z,36.00
2019-02-04T14:42:16.829Z,35.40
2019-02-04T14:45:11.049Z,35.20
2019-02-04T14:47:46.515Z,34.90
2019-02-04T14:50:38.710Z,33.30
2019-02-04T14:53:43.053Z,33.60
2019-02-04T14:56:38.461Z,33.70
2019-02-04T14:59:31.789Z,34.10
2019-02-04T15:02:33.537Z,34.50
2019-02-04T15:05:24.778Z,36.50
2019-02-04T15:08:37.097Z,36.60
2019-02-04T15:11:17.855Z,39.00
2019-02-04T15:14:42.079Z,41.10
2019-02-04T15:17:19.471Z,41.90
2019-02-04T15:20:13.389Z,45.10
2019-02-04T15:23:11.360Z,47.20
2019-02-04T15:26:38.439Z,48.90
2019-02-04T15:29:46.266Z,51.20
2019-02-04T15:32:29.625Z,54.20
2019-02-04T15:35:31.212Z,55.30
2019-02-04T15:38:17.341Z,56.80
2019-02-04T15:41:13.756Z,58.30
2019-02-04T15:44:18.795Z,59.20
2019-02-04T15:46:57.904Z,59.70
2019-02-04T15:49:51.774Z,61.50
2019-02-04T15:52:18.673Z,62.70
2019-02-04T15:54:45.657Z,63.80
2019-02-04T15:57:12.670Z,64.80
2019-02-04T15:59:39.676Z,66.00
2019-02-04T16:02:06.673Z,67.30
2019-02-04T16:04:34.660Z,68.20
2019-02-04T16:07:03.865Z,69.10
2019-02-04T16:09:30.933Z,71.50
2019-02-04T16:11:57.863Z,72.90
2019-02-04T16:14:27.295Z,74.80
2019-02-04T16:16:54.306Z,76.30
2019-02-04T16:19:21.189Z,77.50
2019-02-04T16:21:48.165Z,78.30
2019-02-04T16:24:15.156Z,80.60
2019-02-04T16:26:42.028Z,82.70
2019-02-04T16:29:08.955Z,83.50
2019-02-04T16:31:36.033Z,84.90
2019-02-04T16:34:03.645Z,86.90
2019-02-04T16:36:30.531Z,88.20
2019-02-04T16:38:57.534Z,89.40
2019-02-04T16:41:24.457Z,90.30
2019-02-04T16:43:51.353Z,91.20
2019-02-04T16:46:18.343Z,91.60
2019-02-04T16:48:45.352Z,91.90
2019-02-04T16:51:12.231Z,92.20
2019-02-04T16:53:39.130Z,92.60
2019-02-04T16:56:06.040Z,93.00
2019-02-04T16:58:32.840Z,92.00
2019-02-04T17:00:59.759Z,92.10
2019-02-04T17:03:26.760Z,92.40
2019-02-04T17:05:53.747Z,92.80
2019-02-04T17:08:20.657Z,93.70
2019-02-04T17:10:47.964Z,93.40
2019-02-04T17:13:14.987Z,93.80
2019-02-04T17:15:41.885Z,94.20
2019-02-04T17:18:08.986Z,94.40
2019-02-04T17:20:36.088Z,94.30
2019-02-04T17:23:03.152Z,94.40
2019-02-04T17:25:30.060Z,94.90
2019-02-04T17:27:57.216Z,95.50
2019-02-04T17:30:24.257Z,95.40
2019-02-04T17:32:51.277Z,95.70
2019-02-04T17:35:18.394Z,95.70
2019-02-04T17:37:45.470Z,96.00
2019-02-04T17:40:14.955Z,96.10
2019-02-04T17:42:42.140Z,96.30
2019-02-04T17:45:10.503Z,96.50
2019-02-04T17:47:37.603Z,96.90
2019-02-04T17:50:05.676Z,97.30
2019-02-04T17:52:32.764Z,97.50
2019-02-04T17:54:59.769Z,97.50
2019-02-04T17:57:29.934Z,97.50
2019-02-04T17:59:56.939Z,97.50
2019-02-04T18:02:24.228Z,97.90
2019-02-04T18:04:53.886Z,97.80
2019-02-04T18:07:23.954Z,98.30
2019-02-04T18:09:53.543Z,97.90
2019-02-04T18:12:20.536Z,98.10
2019-02-04T18:14:47.555Z,98.10
2019-02-04T18:17:14.553Z,98.20
2019-02-04T18:19:41.573Z,98.30
2019-02-04T18:22:08.573Z,98.60
2019-02-04T18:24:35.365Z,98.30
2019-02-04T18:27:02.769Z,98.00
2019-02-04T18:29:29.665Z,98.00
2019-02-04T18:31:57.088Z,97.70
2019-02-04T18:34:31.021Z,97.40
2019-02-04T18:36:57.928Z,97.50
2019-02-04T18:39:25.032Z,97.50
2019-02-04T18:41:51.944Z,98.00
2019-02-04T18:44:18.936Z,97.70
2019-02-04T18:46:46.429Z,97.70
2019-02-04T18:49:13.418Z,97.70
2019-02-04T18:51:40.525Z,97.80
2019-02-04T18:54:07.417Z,97.90
2019-02-04T18:56:34.309Z,97.90
2019-02-04T18:59:01.316Z,97.90
2019-02-04T19:01:28.216Z,98.00
2019-02-04T19:03:55.315Z,97.80
2019-02-04T19:06:22.217Z,97.80
2019-02-04T19:08:52.600Z,97.70
2019-02-04T19:11:19.621Z,97.80
2019-02-04T19:13:46.509Z,97.90
2019-02-04T19:16:13.546Z,97.90
2019-02-04T19:18:40.337Z,97.90
2019-02-04T19:21:07.333Z,97.80
2019-02-04T19:23:35.427Z,97.90
2019-02-04T19:26:02.738Z,97.90
2019-02-04T19:28:29.518Z,97.90
2019-02-04T19:31:11.891Z,98.00
2019-02-04T19:33:38.789Z,98.00
2019-02-04T19:36:07.789Z,98.00
2019-02-04T19:38:34.589Z,98.00
2019-02-04T19:41:01.611Z,98.20
2019-02-04T19:43:28.703Z,98.30
2019-02-04T19:45:55.633Z,98.50
2019-02-04T19:48:23.398Z,98.30
2019-02-04T19:50:50.456Z,98.10
2019-02-04T19:53:17.469Z,98.00
2019-02-04T19:55:44.467Z,98.40
2019-02-04T19:58:11.685Z,98.10
2019-02-04T20:00:38.792Z,98.10
2019-02-04T20:03:06.666Z,98.00
2019-02-04T20:05:33.672Z,98.30
2019-02-04T20:08:00.626Z,98.00
2019-02-04T20:10:28.877Z,97.80
2019-02-04T20:12:55.996Z,97.80
2019-02-04T20:15:25.237Z,97.50
2019-02-04T20:17:52.358Z,97.40
2019-02-04T20:20:19.573Z,97.10
2019-02-04T20:22:46.513Z,97.20
2019-02-04T20:25:16.423Z,96.60
2019-02-04T20:27:43.329Z,96.40
2019-02-04T20:30:14.252Z,96.40
2019-02-04T20:32:41.549Z,96.20
2019-02-04T20:35:10.756Z,96.10
2019-02-04T20:37:37.825Z,96.20
2019-02-04T20:40:06.066Z,96.20
2019-02-04T20:42:33.025Z,96.30
2019-02-04T20:44:59.941Z,96.50
2019-02-04T20:47:26.961Z,96.50
2019-02-04T20:49:54.270Z,96.80
2019-02-04T20:52:21.240Z,96.90
2019-02-04T20:54:48.132Z,97.20
2019-02-04T20:57:15.013Z,97.20
2019-02-04T20:59:41.951Z,97.50
2019-02-04T21:02:08.849Z,97.40
2019-02-04T21:04:35.669Z,97.30
2019-02-04T21:07:03.399Z,97.10
2019-02-04T21:09:30.745Z,97.10
2019-02-04T21:11:57.638Z,96.90
2019-02-04T21:14:24.462Z,97.00
2019-02-04T21:16:51.252Z,97.20
2019-02-04T21:19:18.173Z,97.50
2019-02-04T21:21:45.053Z,97.80
2019-02-04T21:24:11.969Z,98.00
2019-02-04T21:26:39.570Z,98.40
2019-02-04T21:29:06.634Z,98.60
2019-02-04T21:31:39.692Z,98.70
2019-02-04T21:34:06.813Z,98.80
2019-02-04T21:36:33.846Z,98.50
2019-02-04T21:39:00.940Z,98.90
2019-02-04T21:41:27.749Z,98.50
2019-02-04T21:43:55.026Z,98.20
2019-02-04T21:46:22.262Z,97.90
2019-02-04T21:48:49.204Z,97.60
2019-02-04T21:51:17.224Z,97.50
2019-02-04T21:53:44.456Z,97.40
2019-02-04T21:56:11.628Z,97.50
2019-02-04T21:58:47.849Z,97.60
2019-02-04T22:01:14.890Z,97.80
2019-02-04T22:03:41.924Z,97.70
2019-02-04T22:06:27.373Z,97.70
2019-02-04T22:08:54.946Z,98.10
2019-02-04T22:11:22.281Z,97.80
2019-02-04T22:13:49.529Z,97.80
2019-02-04T22:16:17.340Z,97.80
2019-02-04T22:18:44.838Z,97.90
2019-02-04T22:21:11.947Z,98.10
2019-02-04T22:23:38.908Z,98.30
2019-02-04T22:26:06.351Z,98.30
2019-02-04T22:28:33.597Z,98.30
2019-02-04T22:31:01.148Z,98.10
2019-02-04T22:33:28.040Z,98.10
2019-02-04T22:35:54.949Z,98.30
2019-02-04T22:38:22.035Z,98.90
2019-02-04T22:40:52.397Z,99.30
2019-02-04T22:43:19.494Z,99.10
2019-02-04T22:45:46.402Z,99.40
2019-02-04T22:48:13.489Z,99.20
2019-02-04T22:50:40.761Z,99.50
2019-02-04T22:53:07.738Z,99.70
2019-02-04T22:55:34.618Z,99.70
2019-02-04T22:58:01.695Z,99.80
2019-02-04T23:01:10.370Z,99.90
2019-02-04T23:03:37.861Z,99.90
2019-02-04T23:06:05.215Z,99.90
2019-02-04T23:08:32.221Z,99.90
2019-02-04T23:10:59.121Z,99.90
2019-02-04T23:13:26.142Z,99.90
2019-02-04T23:15:54.198Z,99.90
2019-02-04T23:18:21.148Z,99.90
2019-02-04T23:21:02.765Z,99.90
2019-02-04T23:23:29.737Z,99.80
2019-02-04T23:25:56.820Z,99.60
2019-02-04T23:28:24.261Z,99.10
2019-02-04T23:30:54.280Z,99.10
2019-02-04T23:33:21.285Z,98.70
2019-02-04T23:35:48.273Z,98.40
2019-02-04T23:38:15.217Z,98.40
2019-02-04T23:40:42.076Z,98.60
2019-02-04T23:43:08.962Z,98.60
2019-02-04T23:45:35.878Z,98.70
2019-02-04T23:48:04.012Z,99.00
2019-02-04T23:50:31.039Z,99.20
2019-02-04T23:53:04.397Z,99.50
2019-02-04T23:55:31.501Z,99.50
2019-02-04T23:57:58.577Z,99.50
